createdAt,value
2023-02-11T00:01:33.075Z,15.95
2023-02-11T00:06:35.768Z,13.25
2023-02-11T00:11:37.271Z,13.00
2023-02-11T00:16:38.855Z,13.65
2023-02-11T00:21:40.380Z,12.52
2023-02-11T00:26:41.794Z,15.25
2023-02-11T00:31:43.672Z,15.30
2023-02-11T00:36:45.190Z,13.98
2023-02-11T00:41:46.621Z,14.82
2023-02-11T00:46:48.152Z,13.43
2023-02-11T00:51:49.595Z,14.20
2023-02-11T00:56:51.013Z,14.35
2023-02-11T01:01:52.596Z,15.52
2023-02-11T01:06:54.608Z,13.13
2023-02-11T01:11:56.037Z,14.10
2023-02-11T01:16:57.456Z,14.90
2023-02-11T01:21:58.999Z,13.50
2023-02-11T01:27:00.469Z,14.00
2023-02-11T01:32:01.975Z,13.93
2023-02-11T01:37:03.433Z,14.52
2023-02-11T01:42:05.214Z,14.82
2023-02-11T01:47:06.705Z,13.23
2023-02-11T01:52:40.951Z,11.35
2023-02-11T01:57:47.405Z,14.82
2023-02-11T02:02:58.254Z,14.23
2023-02-11T02:08:13.623Z,13.00
2023-02-11T02:13:15.628Z,12.77
2023-02-11T02:18:48.843Z,13.63
2023-02-11T02:24:15.142Z,13.43
2023-02-11T02:29:56.506Z,13.20
2023-02-11T02:35:33.326Z,14.30
2023-02-11T02:40:41.137Z,14.65
2023-02-11T02:45:42.757Z,12.70
2023-02-11T02:50:44.645Z,12.68
2023-02-11T02:56:08.535Z,15.18
2023-02-11T03:01:34.770Z,15.38
2023-02-11T03:06:45.784Z,14.38
2023-02-11T03:11:47.243Z,13.82
2023-02-11T03:16:50.132Z,13.23
2023-02-11T03:21:53.474Z,11.93
2023-02-11T03:26:57.883Z,12.65
2023-02-11T03:32:22.234Z,12.73
2023-02-11T03:37:30.677Z,15.55
2023-02-11T03:47:39.964Z,17.05
2023-02-11T03:52:42.380Z,12.27
2023-02-11T03:57:44.260Z,15.88
2023-02-11T04:02:45.816Z,15.18
2023-02-11T04:07:47.273Z,15.80
2023-02-11T04:12:48.947Z,12.68
2023-02-11T04:17:50.559Z,13.15
2023-02-11T04:22:51.996Z,15.98
2023-02-11T04:27:53.470Z,15.10
2023-02-11T04:32:54.963Z,15.10
2023-02-11T04:37:56.437Z,14.82
2023-02-11T04:42:57.887Z,13.38
2023-02-11T04:47:59.338Z,15.57
2023-02-11T04:53:01.766Z,14.43
2023-02-11T04:58:03.248Z,15.93
2023-02-11T05:03:04.710Z,13.57
2023-02-11T05:08:07.019Z,14.25
2023-02-11T05:13:08.455Z,15.85
2023-02-11T05:18:10.006Z,17.27
2023-02-11T05:23:12.245Z,15.52
2023-02-11T05:28:13.702Z,16.80
2023-02-11T05:33:15.140Z,15.65
2023-02-11T05:38:16.864Z,15.38
2023-02-11T05:43:18.296Z,15.98
2023-02-11T05:48:19.852Z,16.48
2023-02-11T05:53:21.877Z,15.98
2023-02-11T05:58:23.315Z,14.70
2023-02-11T06:03:24.789Z,15.05
2023-02-11T06:08:26.240Z,16.13
2023-02-11T06:13:27.675Z,17.10
2023-02-11T06:18:29.678Z,17.38
2023-02-11T06:23:31.135Z,16.55
2023-02-11T06:28:33.542Z,16.00
2023-02-11T06:33:35.667Z,15.38
2023-02-11T06:38:37.111Z,18.45
2023-02-11T06:43:39.541Z,13.07
2023-02-11T06:48:43.794Z,15.90
2023-02-11T06:53:46.758Z,17.45
2023-02-11T06:58:51.702Z,15.68
2023-02-11T07:03:53.776Z,15.07
2023-02-11T07:08:56.166Z,14.70
2023-02-11T07:14:03.890Z,18.52
2023-02-11T07:19:05.375Z,15.48
2023-02-11T07:24:10.918Z,16.80
2023-02-11T07:29:12.880Z,14.73
2023-02-11T07:34:14.329Z,15.25
2023-02-11T07:39:15.809Z,17.33
2023-02-11T07:44:17.285Z,16.23
2023-02-11T07:49:18.737Z,15.00
2023-02-11T07:54:20.254Z,16.70
2023-02-11T07:59:21.743Z,17.45
2023-02-11T08:04:23.237Z,17.17
2023-02-11T08:09:25.022Z,13.93
2023-02-11T08:14:27.228Z,16.92
2023-02-11T08:24:30.027Z,14.82
2023-02-11T08:29:31.464Z,16.23
2023-02-11T08:34:32.919Z,15.68
2023-02-11T08:39:34.404Z,16.98
2023-02-11T08:44:35.844Z,17.02
2023-02-11T08:49:37.480Z,13.98
2023-02-11T08:54:39.108Z,16.13
2023-02-11T08:59:40.562Z,15.73
2023-02-11T09:04:42.103Z,17.08
2023-02-11T09:09:43.533Z,14.95
2023-02-11T09:14:44.967Z,15.57
2023-02-11T09:19:46.412Z,14.82
2023-02-11T09:24:47.850Z,17.00
2023-02-11T09:29:49.358Z,17.95
2023-02-11T09:34:50.827Z,16.05
2023-02-11T09:39:52.258Z,18.77
2023-02-11T09:44:53.901Z,18.25
2023-02-11T09:50:13.385Z,15.60
2023-02-11T09:55:22.777Z,18.63
2023-02-11T10:00:28.262Z,14.45
2023-02-11T10:05:48.454Z,17.00
2023-02-11T10:11:02.192Z,14.65
2023-02-11T10:16:25.025Z,15.98
2023-02-11T10:21:51.510Z,13.52
2023-02-11T10:26:53.028Z,15.20
2023-02-11T10:31:57.219Z,14.73
2023-02-11T10:37:00.319Z,18.38
2023-02-11T10:48:39.270Z,15.73
2023-02-11T10:53:40.911Z,15.73
2023-02-11T10:58:53.952Z,16.52
2023-02-11T11:03:55.863Z,15.57
2023-02-11T11:08:58.109Z,17.15
2023-02-11T11:14:00.506Z,16.40
2023-02-11T11:19:08.148Z,19.80
2023-02-11T11:24:19.960Z,17.38
2023-02-11T11:29:45.954Z,15.60
2023-02-11T11:34:53.963Z,14.18
2023-02-11T11:40:22.549Z,17.80
2023-02-11T11:45:27.390Z,16.40
2023-02-11T11:50:43.378Z,16.42
2023-02-11T11:55:50.794Z,14.73
2023-02-11T12:01:05.572Z,16.63
2023-02-11T12:06:23.162Z,16.88
2023-02-11T12:11:47.994Z,13.75
2023-02-11T12:17:19.330Z,16.65
2023-02-11T12:22:58.297Z,15.00
2023-02-11T12:28:23.259Z,17.13
2023-02-11T12:33:48.079Z,16.40
2023-02-11T12:39:06.509Z,14.50
2023-02-11T12:44:20.822Z,14.48
2023-02-11T12:49:56.395Z,16.40
2023-02-11T12:55:09.124Z,13.02
2023-02-11T13:00:17.204Z,14.18
2023-02-11T13:05:33.757Z,15.90
2023-02-11T13:10:38.372Z,13.02
2023-02-11T13:15:42.836Z,15.00
2023-02-11T13:20:53.923Z,16.55
2023-02-11T13:26:12.945Z,15.73
2023-02-11T13:31:16.512Z,13.75
2023-02-11T13:36:33.316Z,13.60
2023-02-11T13:41:40.392Z,15.18
2023-02-11T13:47:04.712Z,19.08
2023-02-11T13:52:21.716Z,15.77
2023-02-11T13:57:29.551Z,14.98
2023-02-11T14:02:52.730Z,16.02
2023-02-11T14:08:28.102Z,15.02
2023-02-11T14:13:31.536Z,15.27
2023-02-11T14:18:59.434Z,15.60
2023-02-11T14:24:07.008Z,13.63
2023-02-11T14:29:44.077Z,12.85
2023-02-11T14:35:10.454Z,12.75
2023-02-11T14:40:26.763Z,14.43
2023-02-11T14:45:29.010Z,14.63
2023-02-11T14:50:45.616Z,14.13
2023-02-11T14:55:52.787Z,12.05
2023-02-11T15:00:59.046Z,13.52
2023-02-11T15:06:19.389Z,14.60
2023-02-11T15:11:23.841Z,14.60
2023-02-11T15:16:28.657Z,13.48
2023-02-11T15:21:33.386Z,13.73
2023-02-11T15:26:34.818Z,12.82
2023-02-11T15:31:36.336Z,13.75
2023-02-11T15:36:38.558Z,12.45
2023-02-11T15:41:39.986Z,13.32
2023-02-11T15:46:41.503Z,11.68
2023-02-11T15:51:46.035Z,14.18
2023-02-11T15:56:52.667Z,11.75
2023-02-11T16:01:55.433Z,12.55
2023-02-11T16:06:57.542Z,11.90
2023-02-11T16:12:07.430Z,12.48
2023-02-11T16:17:11.017Z,13.45
2023-02-11T16:22:28.804Z,13.60
2023-02-11T16:27:39.735Z,12.55
2023-02-11T16:32:41.389Z,12.13
2023-02-11T16:37:42.834Z,13.48
2023-02-11T16:42:44.296Z,13.40
2023-02-11T16:47:46.176Z,12.40
2023-02-11T16:52:48.368Z,13.20
2023-02-11T16:57:49.902Z,15.32
2023-02-11T17:02:51.428Z,14.48
2023-02-11T17:07:52.889Z,14.52
2023-02-11T17:12:54.361Z,13.02
2023-02-11T17:17:55.786Z,16.63
2023-02-11T17:22:57.677Z,14.25
2023-02-11T17:27:59.157Z,15.45
2023-02-11T17:33:00.741Z,16.27
2023-02-11T17:38:02.249Z,17.25
2023-02-11T17:43:03.965Z,15.60
2023-02-11T17:48:05.545Z,18.98
2023-02-11T17:53:07.119Z,17.10
2023-02-11T17:58:08.555Z,19.85
2023-02-11T18:03:09.983Z,19.45
2023-02-11T18:08:11.429Z,17.38
2023-02-11T18:13:13.312Z,22.23
2023-02-11T18:18:15.043Z,21.17
2023-02-11T18:23:16.464Z,19.67
2023-02-11T18:28:18.033Z,20.38
2023-02-11T18:33:19.460Z,19.40
2023-02-11T18:38:22.283Z,20.20
2023-02-11T18:43:23.778Z,21.92
2023-02-11T18:48:28.451Z,21.55
2023-02-11T18:53:29.895Z,19.67
2023-02-11T18:58:31.319Z,19.38
2023-02-11T19:03:32.775Z,18.88
2023-02-11T19:08:34.222Z,19.77
2023-02-11T19:13:35.727Z,20.70
2023-02-11T19:18:38.578Z,17.70
2023-02-11T19:23:40.070Z,15.82
2023-02-11T19:28:41.655Z,15.60
2023-02-11T19:33:43.268Z,15.98
2023-02-11T19:38:45.162Z,14.80
2023-02-11T19:48:49.686Z,15.30
2023-02-11T19:58:52.677Z,17.75
2023-02-11T20:03:55.509Z,16.33
2023-02-11T20:09:00.450Z,15.40
2023-02-11T20:14:02.486Z,13.50
2023-02-11T20:19:03.909Z,16.02
2023-02-11T20:24:05.403Z,15.18
2023-02-11T20:29:07.119Z,18.50
2023-02-11T20:34:09.878Z,15.57
2023-02-11T20:39:11.469Z,15.05
2023-02-11T20:44:13.392Z,19.05
2023-02-11T20:49:18.740Z,18.63
2023-02-11T20:54:21.774Z,17.98
2023-02-11T20:59:23.305Z,13.65
2023-02-11T21:04:27.415Z,17.33
2023-02-11T21:09:33.139Z,16.63
2023-02-11T21:14:34.615Z,17.85
2023-02-11T21:19:36.061Z,18.48
2023-02-11T21:24:37.507Z,17.23
2023-02-11T21:29:52.802Z,16.75
2023-02-11T21:34:55.540Z,17.83
2023-02-11T21:39:57.001Z,17.48
2023-02-11T21:44:58.442Z,18.48
2023-02-11T21:49:59.943Z,21.27
2023-02-11T21:55:01.417Z,21.98
2023-02-11T22:00:04.669Z,20.05
2023-02-11T22:05:07.104Z,21.25
2023-02-11T22:10:09.589Z,21.42
2023-02-11T22:15:11.139Z,18.45
2023-02-11T22:20:12.616Z,15.52
2023-02-11T22:25:14.061Z,18.10
2023-02-11T22:30:15.493Z,18.08
2023-02-11T22:35:17.062Z,15.27
2023-02-11T22:40:18.708Z,18.63
2023-02-11T22:45:20.140Z,20.48
2023-02-11T22:50:21.573Z,21.05
2023-02-11T22:55:23.041Z,20.10
2023-02-11T23:00:26.292Z,18.95
2023-02-11T23:05:27.744Z,24.38
2023-02-11T23:10:29.162Z,22.88
2023-02-11T23:15:30.918Z,24.15
2023-02-11T23:20:35.565Z,20.63
2023-02-11T23:25:44.732Z,23.42
2023-02-11T23:30:46.221Z,17.85
2023-02-11T23:35:47.806Z,21.65
2023-02-11T23:40:49.235Z,22.25
2023-02-11T23:45:52.077Z,20.77
2023-02-11T23:50:53.864Z,23.05
2023-02-11T23:55:55.540Z,19.33
